Loughrea, Ireland
Current Conditions -  °F | °C
As of 4:00 PM on Saturday 25 Oct 2014 (Local Time) from EINN Reporting Station
Broken Clouds Broken Clouds  
Wind Chill: 52°   Ceiling: 5400
Heat Index: 52°   Visibility: 6mi
Dew Point: 50°   Wind: 15mph
Humidity: 94%   Direction: 220°SW
Pressure: 29.91"   Gusts: NA
Location:  53.2°N, 8.57°W
Report Text: EINN 251600Z 22013KT 9999 FEW012 BKN054 11/10 Q1013 NOSIG
Loading
Personal Weather Stations






























Interactive Weather Map
Tropical Storm Tracking
New forecast layout! Learn more

10-Day Weather Forecast

Advertisements
Track Severe Weather on mobile